sensor_id;sensor_type;location;lat;lon;timestamp;pressure;altitude;pressure_sealevel;temperature;humidity
49949;BME280;35840;45.982;8.890;2023-05-11T00:00:51;97933.97;;;14.40;80.22
49949;BME280;35840;45.982;8.890;2023-05-11T00:03:17;97929.06;;;14.37;80.23
49949;BME280;35840;45.982;8.890;2023-05-11T00:05:47;97927.28;;;14.37;81.22
49949;BME280;35840;45.982;8.890;2023-05-11T00:08:14;97934.94;;;14.39;81.40
49949;BME280;35840;45.982;8.890;2023-05-11T00:10:46;97929.06;;;14.37;81.18
49949;BME280;35840;45.982;8.890;2023-05-11T00:13:13;97934.81;;;14.40;81.68
49949;BME280;35840;45.982;8.890;2023-05-11T00:15:40;97935.59;;;14.41;81.75
49949;BME280;35840;45.982;8.890;2023-05-11T00:18:07;97936.41;;;14.41;81.56
49949;BME280;35840;45.982;8.890;2023-05-11T00:20:34;97926.19;;;14.40;81.40
49949;BME280;35840;45.982;8.890;2023-05-11T00:23:01;97928.53;;;14.43;81.74
49949;BME280;35840;45.982;8.890;2023-05-11T00:25:28;97922.69;;;14.41;81.79
49949;BME280;35840;45.982;8.890;2023-05-11T00:27:54;97917.25;;;14.44;81.75
49949;BME280;35840;45.982;8.890;2023-05-11T00:30:21;97918.09;;;14.44;81.88
49949;BME280;35840;45.982;8.890;2023-05-11T00:32:49;97917.25;;;14.44;81.61
49949;BME280;35840;45.982;8.890;2023-05-11T00:35:17;97912.34;;;14.41;81.73
49949;BME280;35840;45.982;8.890;2023-05-11T00:37:44;97899.22;;;14.33;81.65
49949;BME280;35840;45.982;8.890;2023-05-11T00:40:11;97908.34;;;14.37;81.46
49949;BME280;35840;45.982;8.890;2023-05-11T00:42:38;97897.22;;;14.36;81.48
49949;BME280;35840;45.982;8.890;2023-05-11T00:45:05;97884.78;;;14.30;82.01
49949;BME280;35840;45.982;8.890;2023-05-11T00:47:32;97883.38;;;14.26;81.22
49949;BME280;35840;45.982;8.890;2023-05-11T00:49:59;97887.88;;;14.24;81.00
49949;BME280;35840;45.982;8.890;2023-05-11T00:52:26;97879.91;;;14.37;80.78
49949;BME280;35840;45.982;8.890;2023-05-11T00:54:52;97884.97;;;14.38;81.17
49949;BME280;35840;45.982;8.890;2023-05-11T00:57:20;97878.53;;;14.33;81.36
49949;BME280;35840;45.982;8.890;2023-05-11T00:59:48;97879.19;;;14.25;81.71
49949;BME280;35840;45.982;8.890;2023-05-11T01:02:15;97880.50;;;14.19;82.26
49949;BME280;35840;45.982;8.890;2023-05-11T01:04:43;97884.03;;;14.18;81.82
49949;BME280;35840;45.982;8.890;2023-05-11T01:07:22;97874.75;;;14.16;82.39
49949;BME280;35840;45.982;8.890;2023-05-11T01:12:42;97871.63;;;14.12;82.06
49949;BME280;35840;45.982;8.890;2023-05-11T01:15:13;97871.78;;;14.20;82.61
49949;BME280;35840;45.982;8.890;2023-05-11T01:17:49;97864.47;;;14.25;82.13
49949;BME280;35840;45.982;8.890;2023-05-11T01:20:24;97860.13;;;14.26;82.69
49949;BME280;35840;45.982;8.890;2023-05-11T01:31:11;97863.09;;;14.21;82.10
49949;BME280;35840;45.982;8.890;2023-05-11T01:33:48;97854.91;;;14.16;82.95
49949;BME280;35840;45.982;8.890;2023-05-11T01:36:18;97852.22;;;14.18;82.14
49949;BME280;35840;45.982;8.890;2023-05-11T01:38:47;97863.56;;;14.05;82.55
49949;BME280;35840;45.982;8.890;2023-05-11T01:41:17;97859.13;;;13.96;82.69
49949;BME280;35840;45.982;8.890;2023-05-11T01:43:52;97857.50;;;13.95;83.67
49949;BME280;35840;45.982;8.890;2023-05-11T01:46:22;97853.41;;;13.92;83.41
49949;BME280;35840;45.982;8.890;2023-05-11T01:48:51;97856.41;;;13.98;83.69
49949;BME280;35840;45.982;8.890;2023-05-11T01:51:21;97852.47;;;13.93;83.38
49949;BME280;35840;45.982;8.890;2023-05-11T01:53:50;97857.66;;;13.93;83.40
49949;BME280;35840;45.982;8.890;2023-05-11T01:56:20;97853.84;;;13.98;83.93
49949;BME280;35840;45.982;8.890;2023-05-11T01:58:48;97856.06;;;14.02;83.95
49949;BME280;35840;45.982;8.890;2023-05-11T02:01:16;97850.06;;;14.02;83.64
49949;BME280;35840;45.982;8.890;2023-05-11T02:03:45;97855.75;;;13.95;83.93
49949;BME280;35840;45.982;8.890;2023-05-11T02:06:16;97851.50;;;13.94;84.17
49949;BME280;35840;45.982;8.890;2023-05-11T02:08:46;97846.09;;;13.98;83.78
49949;BME280;35840;45.982;8.890;2023-05-11T02:11:14;97846.47;;;13.93;84.49
49949;BME280;35840;45.982;8.890;2023-05-11T02:13:44;97815.84;;;13.88;83.21
49949;BME280;35840;45.982;8.890;2023-05-11T02:16:13;97838.34;;;13.98;84.30
49949;BME280;35840;45.982;8.890;2023-05-11T02:18:41;97838.34;;;13.98;84.14
49949;BME280;35840;45.982;8.890;2023-05-11T02:21:08;97842.25;;;13.92;84.16
49949;BME280;35840;45.982;8.890;2023-05-11T02:23:38;97843.63;;;13.96;83.96
49949;BME280;35840;45.982;8.890;2023-05-11T02:26:06;97841.16;;;13.94;83.95
49949;BME280;35840;45.982;8.890;2023-05-11T02:28:33;97831.81;;;13.93;84.49
49949;BME280;35840;45.982;8.890;2023-05-11T02:31:04;97838.28;;;13.88;84.75
49949;BME280;35840;45.982;8.890;2023-05-11T02:33:39;97837.91;;;13.92;84.55
49949;BME280;35840;45.982;8.890;2023-05-11T02:36:12;97825.41;;;13.98;84.21
49949;BME280;35840;45.982;8.890;2023-05-11T02:38:41;97833.16;;;13.98;84.42
49949;BME280;35840;45.982;8.890;2023-05-11T02:41:11;97831.97;;;14.02;83.87
49949;BME280;35840;45.982;8.890;2023-05-11T02:43:44;97829.22;;;13.93;84.85
49949;BME280;35840;45.982;8.890;2023-05-11T02:46:16;97833.81;;;13.90;84.97
49949;BME280;35840;45.982;8.890;2023-05-11T02:48:49;97830.66;;;13.86;85.12
49949;BME280;35840;45.982;8.890;2023-05-11T02:51:21;97828.31;;;13.83;85.10
49949;BME280;35840;45.982;8.890;2023-05-11T02:53:51;97821.75;;;13.79;85.59
49949;BME280;35840;45.982;8.890;2023-05-11T02:56:21;97822.97;;;13.75;85.91
49949;BME280;35840;45.982;8.890;2023-05-11T02:58:51;97828.03;;;13.76;85.59
49949;BME280;35840;45.982;8.890;2023-05-11T03:01:21;97823.16;;;13.83;85.80
49949;BME280;35840;45.982;8.890;2023-05-11T03:03:49;97812.41;;;13.78;85.01
49949;BME280;35840;45.982;8.890;2023-05-11T03:06:16;97806.38;;;13.77;84.24
49949;BME280;35840;45.982;8.890;2023-05-11T03:08:44;97809.44;;;13.83;85.43
49949;BME280;35840;45.982;8.890;2023-05-11T03:11:12;97808.69;;;13.71;85.98
49949;BME280;35840;45.982;8.890;2023-05-11T03:13:44;97812.19;;;13.70;86.72
49949;BME280;35840;45.982;8.890;2023-05-11T03:16:13;97811.38;;;13.69;86.60
49949;BME280;35840;45.982;8.890;2023-05-11T03:18:40;97805.84;;;13.74;86.13
49949;BME280;35840;45.982;8.890;2023-05-11T03:21:07;97810.03;;;13.75;85.54
49949;BME280;35840;45.982;8.890;2023-05-11T03:23:35;97805.97;;;13.72;86.08
49949;BME280;35840;45.982;8.890;2023-05-11T03:26:03;97799.84;;;13.73;86.01
49949;BME280;35840;45.982;8.890;2023-05-11T03:28:32;97805.13;;;13.72;85.82
49949;BME280;35840;45.982;8.890;2023-05-11T03:31:05;97789.88;;;13.69;86.08
49949;BME280;35840;45.982;8.890;2023-05-11T03:33:32;97802.56;;;13.72;86.28
49949;BME280;35840;45.982;8.890;2023-05-11T03:36:01;97792.47;;;13.69;86.60
49949;BME280;35840;45.982;8.890;2023-05-11T03:38:31;97806.19;;;13.69;86.36
49949;BME280;35840;45.982;8.890;2023-05-11T03:40:59;97799.72;;;13.75;85.16
49949;BME280;35840;45.982;8.890;2023-05-11T03:43:30;97797.38;;;13.72;85.57
49949;BME280;35840;45.982;8.890;2023-05-11T03:45:59;97774.91;;;13.63;85.25
49949;BME280;35840;45.982;8.890;2023-05-11T03:48:27;97784.34;;;13.73;85.81
49949;BME280;35840;45.982;8.890;2023-05-11T03:50:54;97788.00;;;13.71;85.53
49949;BME280;35840;45.982;8.890;2023-05-11T03:53:22;97784.84;;;13.67;85.79
49949;BME280;35840;45.982;8.890;2023-05-11T03:55:49;97792.34;;;13.70;85.30
49949;BME280;35840;45.982;8.890;2023-05-11T03:58:18;97788.38;;;13.66;85.98
49949;BME280;35840;45.982;8.890;2023-05-11T04:00:45;97785.66;;;13.68;85.20
49949;BME280;35840;45.982;8.890;2023-05-11T04:03:12;97764.72;;;13.61;85.07
49949;BME280;35840;45.982;8.890;2023-05-11T04:05:40;97796.50;;;13.83;84.25
49949;BME280;35840;45.982;8.890;2023-05-11T04:08:10;97783.97;;;13.78;85.16
49949;BME280;35840;45.982;8.890;2023-05-11T04:10:37;97793.19;;;13.71;85.14
49949;BME280;35840;45.982;8.890;2023-05-11T04:13:04;97791.97;;;13.75;84.51
49949;BME280;35840;45.982;8.890;2023-05-11T04:15:31;97781.34;;;13.68;85.37
49949;BME280;35840;45.982;8.890;2023-05-11T04:17:57;97789.56;;;13.62;86.14
49949;BME280;35840;45.982;8.890;2023-05-11T04:20:24;97790.88;;;13.56;86.29
49949;BME280;35840;45.982;8.890;2023-05-11T04:22:51;97792.66;;;13.56;87.07
49949;BME280;35840;45.982;8.890;2023-05-11T04:25:17;97788.69;;;13.52;86.28
49949;BME280;35840;45.982;8.890;2023-05-11T04:27:44;97777.81;;;13.48;86.98
49949;BME280;35840;45.982;8.890;2023-05-11T04:30:11;97780.94;;;13.52;87.11
49949;BME280;35840;45.982;8.890;2023-05-11T04:32:38;97780.13;;;13.51;86.67
49949;BME280;35840;45.982;8.890;2023-05-11T04:35:07;97777.78;;;13.69;86.40
49949;BME280;35840;45.982;8.890;2023-05-11T04:37:36;97767.84;;;13.65;85.78
49949;BME280;35840;45.982;8.890;2023-05-11T04:40:05;97765.56;;;13.71;85.87
49949;BME280;35840;45.982;8.890;2023-05-11T04:42:38;97768.47;;;13.78;86.49
49949;BME280;35840;45.982;8.890;2023-05-11T04:45:08;97775.78;;;13.73;85.94
49949;BME280;35840;45.982;8.890;2023-05-11T04:47:36;97778.22;;;13.74;84.41
49949;BME280;35840;45.982;8.890;2023-05-11T04:50:04;97776.97;;;13.69;84.74
49949;BME280;35840;45.982;8.890;2023-05-11T04:52:33;97770.75;;;13.71;85.22
49949;BME280;35840;45.982;8.890;2023-05-11T04:55:00;97761.03;;;13.64;85.73
49949;BME280;35840;45.982;8.890;2023-05-11T04:57:27;97771.19;;;13.55;87.37
49949;BME280;35840;45.982;8.890;2023-05-11T04:59:54;97781.53;;;13.55;87.53
49949;BME280;35840;45.982;8.890;2023-05-11T05:02:21;97775.66;;;13.53;86.22
49949;BME280;35840;45.982;8.890;2023-05-11T05:04:49;97771.88;;;13.57;86.04
49949;BME280;35840;45.982;8.890;2023-05-11T05:07:16;97760.16;;;13.53;86.43
49949;BME280;35840;45.982;8.890;2023-05-11T05:09:42;97767.53;;;13.58;87.43
49949;BME280;35840;45.982;8.890;2023-05-11T05:12:12;97772.81;;;13.56;87.65
49949;BME280;35840;45.982;8.890;2023-05-11T05:14:39;97780.56;;;13.56;87.79
49949;BME280;35840;45.982;8.890;2023-05-11T05:17:06;97776.91;;;13.59;87.19
49949;BME280;35840;45.982;8.890;2023-05-11T05:19:33;97780.44;;;13.58;86.96
49949;BME280;35840;45.982;8.890;2023-05-11T05:22:01;97781.06;;;13.71;86.48
49949;BME280;35840;45.982;8.890;2023-05-11T05:24:29;97771.75;;;13.59;87.05
49949;BME280;35840;45.982;8.890;2023-05-11T05:26:56;97761.00;;;13.54;86.73
49949;BME280;35840;45.982;8.890;2023-05-11T05:29:23;97774.41;;;13.69;86.58
49949;BME280;35840;45.982;8.890;2023-05-11T05:31:50;97769.88;;;13.61;87.32
49949;BME280;35840;45.982;8.890;2023-05-11T05:34:18;97772.19;;;13.64;87.49
49949;BME280;35840;45.982;8.890;2023-05-11T05:36:45;97775.47;;;13.66;87.76
49949;BME280;35840;45.982;8.890;2023-05-11T05:39:12;97767.44;;;13.69;87.32
49949;BME280;35840;45.982;8.890;2023-05-11T05:41:39;97774.72;;;13.75;87.28
49949;BME280;35840;45.982;8.890;2023-05-11T05:44:08;97769.41;;;13.77;87.27
49949;BME280;35840;45.982;8.890;2023-05-11T05:46:36;97767.94;;;13.84;86.89
49949;BME280;35840;45.982;8.890;2023-05-11T05:49:04;97764.16;;;13.88;85.92
49949;BME280;35840;45.982;8.890;2023-05-11T05:51:32;97769.22;;;13.90;86.38
49949;BME280;35840;45.982;8.890;2023-05-11T05:53:58;97771.78;;;13.90;85.90
49949;BME280;35840;45.982;8.890;2023-05-11T05:56:25;97775.31;;;13.89;86.09
49949;BME280;35840;45.982;8.890;2023-05-11T05:58:52;97782.38;;;13.87;87.31
49949;BME280;35840;45.982;8.890;2023-05-11T06:01:19;97778.72;;;13.89;86.84
49949;BME280;35840;45.982;8.890;2023-05-11T06:03:47;97772.31;;;13.84;87.18
49949;BME280;35840;45.982;8.890;2023-05-11T06:06:15;97779.94;;;13.85;86.31
49949;BME280;35840;45.982;8.890;2023-05-11T06:08:41;97769.88;;;13.82;86.52
49949;BME280;35840;45.982;8.890;2023-05-11T06:11:09;97773.56;;;13.89;85.75
49949;BME280;35840;45.982;8.890;2023-05-11T06:13:35;97770.00;;;13.90;84.66
49949;BME280;35840;45.982;8.890;2023-05-11T06:16:03;97761.47;;;13.90;85.18
49949;BME280;35840;45.982;8.890;2023-05-11T06:18:32;97766.38;;;13.93;85.14
49949;BME280;35840;45.982;8.890;2023-05-11T06:21:01;97755.84;;;13.85;85.27
49949;BME280;35840;45.982;8.890;2023-05-11T06:23:29;97763.66;;;13.94;85.43
49949;BME280;35840;45.982;8.890;2023-05-11T06:25:56;97761.91;;;13.95;85.31
49949;BME280;35840;45.982;8.890;2023-05-11T06:28:24;97733.69;;;13.82;85.73
49949;BME280;35840;45.982;8.890;2023-05-11T06:30:56;97750.47;;;13.98;85.49
49949;BME280;35840;45.982;8.890;2023-05-11T06:33:27;97757.00;;;14.02;85.20
49949;BME280;35840;45.982;8.890;2023-05-11T06:35:54;97761.25;;;14.03;85.19
49949;BME280;35840;45.982;8.890;2023-05-11T06:38:21;97760.03;;;14.07;85.56
49949;BME280;35840;45.982;8.890;2023-05-11T06:40:51;97755.81;;;14.06;85.51
49949;BME280;35840;45.982;8.890;2023-05-11T06:43:18;97761.53;;;14.09;85.69
49949;BME280;35840;45.982;8.890;2023-05-11T06:45:47;97755.81;;;14.06;85.37
49949;BME280;35840;45.982;8.890;2023-05-11T06:48:15;97747.78;;;14.09;85.31
49949;BME280;35840;45.982;8.890;2023-05-11T06:50:42;97758.69;;;14.12;85.17
49949;BME280;35840;45.982;8.890;2023-05-11T06:53:11;97752.06;;;14.20;84.94
49949;BME280;35840;45.982;8.890;2023-05-11T06:55:38;97749.78;;;14.26;84.57
49949;BME280;35840;45.982;8.890;2023-05-11T06:58:05;97743.25;;;14.32;85.64
49949;BME280;35840;45.982;8.890;2023-05-11T07:00:32;97743.13;;;14.34;83.42
49949;BME280;35840;45.982;8.890;2023-05-11T07:02:59;97743.94;;;14.34;81.82
49949;BME280;35840;45.982;8.890;2023-05-11T07:05:26;97744.78;;;14.35;80.87
49949;BME280;35840;45.982;8.890;2023-05-11T07:07:53;97741.06;;;14.37;81.70
49949;BME280;35840;45.982;8.890;2023-05-11T07:10:20;97744.50;;;14.38;81.19
49949;BME280;35840;45.982;8.890;2023-05-11T07:12:46;97734.97;;;14.38;81.68
49949;BME280;35840;45.982;8.890;2023-05-11T07:15:13;97748.03;;;14.37;81.22
49949;BME280;35840;45.982;8.890;2023-05-11T07:17:40;97734.00;;;14.29;82.01
49949;BME280;35840;45.982;8.890;2023-05-11T07:20:07;97746.38;;;14.36;81.67
49949;BME280;35840;45.982;8.890;2023-05-11T07:22:34;97745.03;;;14.41;80.31
49949;BME280;35840;45.982;8.890;2023-05-11T07:25:01;97737.16;;;14.53;80.72
49949;BME280;35840;45.982;8.890;2023-05-11T07:27:27;97729.28;;;14.44;81.43
49949;BME280;35840;45.982;8.890;2023-05-11T07:29:54;97741.00;;;14.58;82.25
49949;BME280;35840;45.982;8.890;2023-05-11T07:32:21;97738.72;;;14.65;82.32
49949;BME280;35840;45.982;8.890;2023-05-11T07:34:48;97741.88;;;14.69;82.71
49949;BME280;35840;45.982;8.890;2023-05-11T07:37:15;97741.59;;;14.72;82.80
49949;BME280;35840;45.982;8.890;2023-05-11T07:39:41;97742.84;;;14.77;84.85
49949;BME280;35840;45.982;8.890;2023-05-11T07:42:08;97724.97;;;14.65;84.15
49949;BME280;35840;45.982;8.890;2023-05-11T07:44:34;97726.09;;;14.72;83.68
49949;BME280;35840;45.982;8.890;2023-05-11T07:47:01;97738.47;;;14.68;84.02
49949;BME280;35840;45.982;8.890;2023-05-11T07:49:28;97727.44;;;14.66;84.69
49949;BME280;35840;45.982;8.890;2023-05-11T07:52:09;97725.78;;;14.65;84.19
49949;BME280;35840;45.982;8.890;2023-05-11T07:54:35;97728.94;;;14.69;84.13
49949;BME280;35840;45.982;8.890;2023-05-11T07:57:02;97728.66;;;14.62;83.23
49949;BME280;35840;45.982;8.890;2023-05-11T07:59:30;97720.03;;;14.61;83.45
49949;BME280;35840;45.982;8.890;2023-05-11T08:01:57;97720.91;;;14.72;83.75
49949;BME280;35840;45.982;8.890;2023-05-11T08:04:26;97725.53;;;14.68;82.28
49949;BME280;35840;45.982;8.890;2023-05-11T08:06:53;97728.25;;;14.67;83.17
49949;BME280;35840;45.982;8.890;2023-05-11T08:09:21;97717.34;;;14.73;83.40
49949;BME280;35840;45.982;8.890;2023-05-11T08:11:48;97720.34;;;14.78;83.30
49949;BME280;35840;45.982;8.890;2023-05-11T08:14:18;97715.19;;;14.78;84.56
49949;BME280;35840;45.982;8.890;2023-05-11T08:16:46;97710.72;;;14.80;84.77
49949;BME280;35840;45.982;8.890;2023-05-11T08:19:15;97706.47;;;14.89;83.06
49949;BME280;35840;45.982;8.890;2023-05-11T08:21:42;97709.22;;;14.97;83.03
49949;BME280;35840;45.982;8.890;2023-05-11T08:24:09;97712.31;;;15.01;82.93
49949;BME280;35840;45.982;8.890;2023-05-11T08:26:36;97710.69;;;15.00;82.89
49949;BME280;35840;45.982;8.890;2023-05-11T08:29:02;97710.97;;;15.06;83.79
49949;BME280;35840;45.982;8.890;2023-05-11T08:31:30;97701.03;;;15.11;83.02
49949;BME280;35840;45.982;8.890;2023-05-11T08:33:56;97712.19;;;15.22;82.79
49949;BME280;35840;45.982;8.890;2023-05-11T08:36:24;97709.72;;;15.30;81.88
49949;BME280;35840;45.982;8.890;2023-05-11T08:38:51;97709.69;;;15.40;80.06
49949;BME280;35840;45.982;8.890;2023-05-11T08:41:24;97702.22;;;15.37;79.81
49949;BME280;35840;45.982;8.890;2023-05-11T08:43:51;97704.91;;;15.45;81.50
49949;BME280;35840;45.982;8.890;2023-05-11T08:46:20;97705.31;;;15.50;79.47
49949;BME280;35840;45.982;8.890;2023-05-11T08:48:49;97704.75;;;15.56;78.85
49949;BME280;35840;45.982;8.890;2023-05-11T08:51:16;97700.09;;;15.60;78.82
49949;BME280;35840;45.982;8.890;2023-05-11T08:53:44;97700.41;;;15.57;78.96
49949;BME280;35840;45.982;8.890;2023-05-11T08:56:11;97695.44;;;15.63;78.88
49949;BME280;35840;45.982;8.890;2023-05-11T08:58:39;97694.91;;;15.70;79.28
49949;BME280;35840;45.982;8.890;2023-05-11T09:01:09;97694.75;;;15.81;78.30
49949;BME280;35840;45.982;8.890;2023-05-11T09:03:38;97694.47;;;15.84;76.03
49949;BME280;35840;45.982;8.890;2023-05-11T09:06:06;97696.75;;;15.87;75.10
49949;BME280;35840;45.982;8.890;2023-05-11T09:08:34;97692.94;;;15.91;77.21
49949;BME280;35840;45.982;8.890;2023-05-11T09:11:02;97683.38;;;15.92;75.32
49949;BME280;35840;45.982;8.890;2023-05-11T09:13:30;97693.72;;;15.92;76.47
49949;BME280;35840;45.982;8.890;2023-05-11T09:15:57;97686.78;;;15.92;75.06
49949;BME280;35840;45.982;8.890;2023-05-11T09:18:25;97696.97;;;16.04;74.52
49949;BME280;35840;45.982;8.890;2023-05-11T09:20:52;97693.13;;;16.08;75.50
49949;BME280;35840;45.982;8.890;2023-05-11T09:23:26;97699.88;;;16.18;74.95
49949;BME280;35840;45.982;8.890;2023-05-11T09:25:53;97692.78;;;16.21;72.89
49949;BME280;35840;45.982;8.890;2023-05-11T09:28:23;97689.09;;;16.23;74.04
49949;BME280;35840;45.982;8.890;2023-05-11T09:30:52;97685.66;;;16.23;73.39
49949;BME280;35840;45.982;8.890;2023-05-11T09:33:23;97680.25;;;16.16;73.20
49949;BME280;35840;45.982;8.890;2023-05-11T09:35:51;97685.16;;;16.19;72.32
49949;BME280;35840;45.982;8.890;2023-05-11T09:38:19;97679.81;;;16.21;72.56
49949;BME280;35840;45.982;8.890;2023-05-11T09:40:54;97670.09;;;16.23;72.90
49949;BME280;35840;45.982;8.890;2023-05-11T09:43:29;97675.38;;;16.31;73.22
49949;BME280;35840;45.982;8.890;2023-05-11T09:45:57;97677.84;;;16.32;72.99
49949;BME280;35840;45.982;8.890;2023-05-11T09:48:29;97681.78;;;16.37;71.94
49949;BME280;35840;45.982;8.890;2023-05-11T09:51:02;97678.44;;;16.44;72.20
49949;BME280;35840;45.982;8.890;2023-05-11T09:53:41;97669.47;;;16.57;73.41
49949;BME280;35840;45.982;8.890;2023-05-11T09:56:13;97670.13;;;16.77;74.91
49949;BME280;35840;45.982;8.890;2023-05-11T09:58:59;97669.84;;;16.98;74.00
49949;BME280;35840;45.982;8.890;2023-05-11T10:01:30;97667.25;;;16.98;72.84
49949;BME280;35840;45.982;8.890;2023-05-11T10:04:01;97667.09;;;16.99;71.45
49949;BME280;35840;45.982;8.890;2023-05-11T10:06:50;97670.97;;;16.95;72.69
49949;BME280;35840;45.982;8.890;2023-05-11T10:09:22;97665.78;;;16.95;74.86
49949;BME280;35840;45.982;8.890;2023-05-11T10:11:50;97664.47;;;16.91;73.18
49949;BME280;35840;45.982;8.890;2023-05-11T10:14:18;97670.31;;;16.93;74.46
49949;BME280;35840;45.982;8.890;2023-05-11T10:16:46;97665.34;;;17.00;73.14
49949;BME280;35840;45.982;8.890;2023-05-11T10:19:13;97658.38;;;17.00;71.57
49949;BME280;35840;45.982;8.890;2023-05-11T10:21:41;97655.53;;;17.12;74.45
49949;BME280;35840;45.982;8.890;2023-05-11T10:24:09;97649.38;;;17.13;72.43
49949;BME280;35840;45.982;8.890;2023-05-11T10:26:37;97654.91;;;17.18;71.29
49949;BME280;35840;45.982;8.890;2023-05-11T10:29:04;97651.34;;;17.19;72.80
49949;BME280;35840;45.982;8.890;2023-05-11T10:31:31;97649.72;;;17.18;73.78
49949;BME280;35840;45.982;8.890;2023-05-11T10:34:00;97655.91;;;17.25;73.38
49949;BME280;35840;45.982;8.890;2023-05-11T10:36:27;97654.31;;;17.24;69.71
49949;BME280;35840;45.982;8.890;2023-05-11T10:38:54;97643.88;;;17.16;72.94
49949;BME280;35840;45.982;8.890;2023-05-11T10:44:38;97643.66;;;17.35;73.03
49949;BME280;35840;45.982;8.890;2023-05-11T10:47:29;97646.59;;;17.41;70.35
49949;BME280;35840;45.982;8.890;2023-05-11T10:50:22;97646.50;;;17.50;73.52
49949;BME280;35840;45.982;8.890;2023-05-11T10:53:27;97640.84;;;17.55;69.28
49949;BME280;35840;45.982;8.890;2023-05-11T10:56:06;97642.41;;;17.48;70.80
49949;BME280;35840;45.982;8.890;2023-05-11T11:01:29;97635.25;;;17.42;71.07
49949;BME280;35840;45.982;8.890;2023-05-11T11:03:59;97629.56;;;17.38;69.83
49949;BME280;35840;45.982;8.890;2023-05-11T11:06:28;97636.88;;;17.43;70.34
49949;BME280;35840;45.982;8.890;2023-05-11T11:09:17;97631.69;;;17.43;70.25
49949;BME280;35840;45.982;8.890;2023-05-11T11:11:47;97620.81;;;17.47;68.63
49949;BME280;35840;45.982;8.890;2023-05-11T11:14:17;97619.91;;;17.57;68.55
49949;BME280;35840;45.982;8.890;2023-05-11T11:19:45;97616.09;;;17.85;69.82
49949;BME280;35840;45.982;8.890;2023-05-11T11:22:50;97618.44;;;17.97;68.63
49949;BME280;35840;45.982;8.890;2023-05-11T11:25:50;97608.88;;;18.05;69.85
49949;BME280;35840;45.982;8.890;2023-05-11T11:28:18;97617.66;;;18.13;69.31
49949;BME280;35840;45.982;8.890;2023-05-11T11:30:45;97601.59;;;18.17;68.66
49949;BME280;35840;45.982;8.890;2023-05-11T11:38:10;97602.13;;;18.46;63.59
49949;BME280;35840;45.982;8.890;2023-05-11T11:40:38;97601.81;;;18.49;63.81
49949;BME280;35840;45.982;8.890;2023-05-11T11:43:18;97594.63;;;18.51;63.49
49949;BME280;35840;45.982;8.890;2023-05-11T11:46:01;97599.03;;;18.58;65.65
49949;BME280;35840;45.982;8.890;2023-05-11T11:48:36;97588.94;;;18.64;64.47
49949;BME280;35840;45.982;8.890;2023-05-11T11:51:08;97595.28;;;18.69;63.51
49949;BME280;35840;45.982;8.890;2023-05-11T11:56:04;97593.19;;;18.81;62.83
49949;BME280;35840;45.982;8.890;2023-05-11T12:01:06;97592.19;;;19.15;65.02
49949;BME280;35840;45.982;8.890;2023-05-11T12:03:35;97588.75;;;19.15;61.58
49949;BME280;35840;45.982;8.890;2023-05-11T12:06:06;97585.16;;;19.24;63.56
49949;BME280;35840;45.982;8.890;2023-05-11T12:08:34;97581.88;;;19.22;61.59
49949;BME280;35840;45.982;8.890;2023-05-11T12:11:02;97585.31;;;19.22;63.61
49949;BME280;35840;45.982;8.890;2023-05-11T12:13:30;97586.09;;;19.31;62.35
49949;BME280;35840;45.982;8.890;2023-05-11T12:16:13;97586.03;;;19.48;64.03
49949;BME280;35840;45.982;8.890;2023-05-11T12:18:42;97583.91;;;19.59;62.09
49949;BME280;35840;45.982;8.890;2023-05-11T12:21:23;97582.13;;;19.52;59.45
49949;BME280;35840;45.982;8.890;2023-05-11T12:24:01;97581.25;;;19.28;61.16
49949;BME280;35840;45.982;8.890;2023-05-11T12:26:29;97579.34;;;19.05;60.61
49949;BME280;35840;45.982;8.890;2023-05-11T12:31:37;97574.28;;;18.63;61.38
49949;BME280;35840;45.982;8.890;2023-05-11T12:34:04;97574.13;;;18.48;62.33
49949;BME280;35840;45.982;8.890;2023-05-11T12:36:33;97576.25;;;18.36;64.41
49949;BME280;35840;45.982;8.890;2023-05-11T12:38:59;97572.16;;;18.17;63.95
49949;BME280;35840;45.982;8.890;2023-05-11T12:41:26;97580.25;;;18.05;66.43
49949;BME280;35840;45.982;8.890;2023-05-11T12:43:53;97589.69;;;17.98;65.39
49949;BME280;35840;45.982;8.890;2023-05-11T12:46:21;97581.16;;;17.80;67.99
49949;BME280;35840;45.982;8.890;2023-05-11T12:48:49;97592.88;;;17.84;66.48
49949;BME280;35840;45.982;8.890;2023-05-11T12:54:08;97570.25;;;17.68;68.54
49949;BME280;35840;45.982;8.890;2023-05-11T12:56:47;97571.69;;;17.70;58.27
49949;BME280;35840;45.982;8.890;2023-05-11T13:01:52;97558.69;;;17.70;59.20
49949;BME280;35840;45.982;8.890;2023-05-11T13:04:29;97563.88;;;17.62;57.72
49949;BME280;35840;45.982;8.890;2023-05-11T13:06:56;97564.34;;;17.58;61.81
49949;BME280;35840;45.982;8.890;2023-05-11T13:09:24;97560.59;;;17.60;67.21
49949;BME280;35840;45.982;8.890;2023-05-11T13:12:14;97555.72;;;17.57;69.05
49949;BME280;35840;45.982;8.890;2023-05-11T13:14:45;97557.34;;;17.50;68.63
49949;BME280;35840;45.982;8.890;2023-05-11T13:17:27;97556.16;;;17.44;67.32
49949;BME280;35840;45.982;8.890;2023-05-11T13:19:55;97546.25;;;17.40;65.60
49949;BME280;35840;45.982;8.890;2023-05-11T13:22:22;97551.47;;;17.48;67.48
49949;BME280;35840;45.982;8.890;2023-05-11T13:25:00;97556.97;;;17.45;67.99
49949;BME280;35840;45.982;8.890;2023-05-11T13:27:27;97550.16;;;17.44;66.37
49949;BME280;35840;45.982;8.890;2023-05-11T13:29:53;97557.94;;;17.35;65.64
49949;BME280;35840;45.982;8.890;2023-05-11T13:32:20;97557.44;;;17.40;67.19
49949;BME280;35840;45.982;8.890;2023-05-11T13:34:47;97542.78;;;17.31;69.81
49949;BME280;35840;45.982;8.890;2023-05-11T13:37:14;97561.13;;;17.21;71.66
49949;BME280;35840;45.982;8.890;2023-05-11T13:39:40;97580.56;;;17.17;69.57
49949;BME280;35840;45.982;8.890;2023-05-11T13:42:07;97589.09;;;17.09;65.98
49949;BME280;35840;45.982;8.890;2023-05-11T13:44:34;97591.16;;;16.97;66.92
49949;BME280;35840;45.982;8.890;2023-05-11T13:47:00;97614.53;;;16.97;68.29
49949;BME280;35840;45.982;8.890;2023-05-11T13:49:27;97627.13;;;16.92;68.31